< Cyclone 199402 1994 Season Cyclone 199404 >
Cyclone 199403 (OSCAR)
General InformationTrack Information on Google MapsDetailed Wind InformationList of All Images || ResourceGoogle EarthGE AnimationAtom FeedGeoJSON
Detalied Best Track (Time Zone = UTC)
Year Month Day Hour Lat. Long. Pressure (hPa) Wind (kt) Class Image Chart
1993 12 28 00 -12.0 129.7 1005 19 2 Image --
1993 12 28 12 -11.1 129.5 1005 19 2 Image --
1993 12 29 00 -10.7 129.0 1004 21 2 Image --
1993 12 29 12 -10.7 128.3 1002 23 2 Image --
1993 12 30 00 -10.8 128.1 1000 27 2 Image --
1993 12 30 12 -11.0 127.2 998 29 2 Image --
1993 12 31 00 -11.2 126.4 996 33 2 Image --
1993 12 31 12 -12.0 126.0 998 29 2 Image --
1994 1 1 00 -12.4 124.6 1000 27 2 Image --
1994 1 1 12 -13.5 123.5 1002 23 2 Image --
1994 1 2 00 -14.5 121.7 1000 27 2 Image --
1994 1 2 12 -15.4 121.0 999 29 2 Image --
1994 1 3 00 -16.6 120.3 995 35 3 Image --
1994 1 3 03 -16.8 119.9 995 35 3 Image --
1994 1 3 06 -17.0 119.5 995 35 3 Image --
1994 1 3 09 -16.9 119.0 995 35 3 Image --
1994 1 3 12 -16.8 118.5 996 33 2 Image --
1994 1 3 18 -17.1 117.9 998 29 2 Image --
1994 1 4 00 -17.3 117.3 1000 27 2 Image --
1994 1 4 12 -17.1 116.4 1000 27 2 Image --
1994 1 5 00 -16.6 115.7 1000 27 2 Image --
1994 1 5 06 -16.3 115.4 1000 27 2 Image --
1994 1 5 12 -16.7 114.9 1000 27 2 Image --
1994 1 6 00 -16.8 114.0 1005 19 2 Image --
1994 1 6 12 -16.8 112.9 1005 19 2 Image --
1994 1 7 00 -17.0 111.9 1005 19 2 Image --
1994 1 7 12 -17.0 111.6 1005 19 2 Image --
1994 1 8 00 -16.9 111.3 1005 19 2 Image --
1994 1 8 12 -16.4 110.2 1005 19 2 Image --
1994 1 9 00 -15.9 109.4 1008 0 0 Image --
< Cyclone 199402 1994 Season Cyclone 199404 >

Help